Time;durP1;ratioP1;P1;durP2;ratioP2;P2;SDS_P1;SDS_P2;PMS_P1;PMS_P2;Temp;Humidity;BMP_temperature;BMP_pressure;BME280_temperature;BME280_humidity;BME280_pressure;Samples;Min_cycle;Max_cycle;Signal;HPM_P1;HPM_P2
2022/12/05 00:01:22;;;;;;;24.17;10.82;;;4.50;99.90;;;;;;4217454;28;20395;-84
2022/12/05 00:03:25;;;;;;;26.25;10.57;;;4.50;99.90;;;;;;4217487;28;20115;-84
2022/12/05 00:05:26;;;;;;;25.45;10.77;;;4.50;99.90;;;;;;4216006;28;20131;-85
2022/12/05 00:07:27;;;;;;;25.02;10.05;;;4.50;99.90;;;;;;4216869;28;20036;-85
2022/12/05 00:09:28;;;;;;;24.75;10.32;;;4.50;99.90;;;;;;4217517;28;20071;-84
2022/12/05 00:11:31;;;;;;;23.08;9.85;;;4.50;99.90;;;;;;4215973;28;20095;-85
2022/12/05 00:13:32;;;;;;;27.80;10.68;;;4.50;99.90;;;;;;4199248;28;20044;-85
2022/12/05 00:15:38;;;;;;;25.63;10.82;;;4.60;99.90;;;;;;4224711;28;20560;-85
2022/12/05 00:17:39;;;;;;;25.98;10.77;;;4.60;99.90;;;;;;4215981;28;20052;-85
2022/12/05 00:19:40;;;;;;;28.25;11.05;;;5.10;99.90;;;;;;4233842;28;20537;-85
2022/12/05 00:21:42;;;;;;;23.95;10.70;;;4.60;99.90;;;;;;4234296;28;20043;-85
2022/12/05 00:23:43;;;;;;;23.63;9.73;;;4.60;99.90;;;;;;4233974;28;20044;-85
2022/12/05 00:25:47;;;;;;;27.42;11.60;;;4.60;99.90;;;;;;4233821;28;20040;-85
2022/12/05 00:27:48;;;;;;;29.13;11.70;;;4.80;99.90;;;;;;4232960;28;20517;-85
2022/12/05 00:29:48;;;;;;;27.38;12.27;;;4.90;99.90;;;;;;4232529;28;20056;-84
2022/12/05 00:31:49;;;;;;;26.15;11.27;;;4.60;99.90;;;;;;4233981;28;20039;-84
2022/12/05 00:33:51;;;;;;;32.17;13.00;;;4.60;99.90;;;;;;4231672;28;20086;-84
2022/12/05 00:35:52;;;;;;;28.42;12.27;;;4.60;99.90;;;;;;4232523;28;20044;-84
2022/12/05 00:37:53;;;;;;;33.95;14.38;;;4.60;99.90;;;;;;4233962;28;20050;-85
2022/12/05 00:39:54;;;;;;;31.88;11.35;;;4.70;99.90;;;;;;4233719;27;20053;-84
2022/12/05 00:41:55;;;;;;;29.98;12.18;;;4.60;99.90;;;;;;4232309;28;20043;-85
2022/12/05 00:43:58;;;;;;;29.85;12.98;;;4.70;99.90;;;;;;4232447;28;20066;-85
2022/12/05 00:46:04;;;;;;;29.70;12.73;;;4.70;99.90;;;;;;4233651;28;20117;-85
2022/12/05 00:48:04;;;;;;;29.35;11.93;;;4.70;99.90;;;;;;4232309;28;20529;-85
2022/12/05 00:50:06;;;;;;;26.40;12.15;;;4.70;99.90;;;;;;4231786;28;20169;-85
2022/12/05 00:52:07;;;;;;;30.15;12.05;;;4.70;99.90;;;;;;4216522;28;20373;-85
2022/12/05 00:54:11;;;;;;;27.92;11.65;;;4.70;99.90;;;;;;4198319;28;20051;-85
2022/12/05 00:56:16;;;;;;;33.15;13.05;;;3.60;99.90;;;;;;4216872;28;20492;-85
2022/12/05 00:58:16;;;;;;;29.85;11.00;;;4.70;99.90;;;;;;4216520;28;20116;-85
2022/12/05 01:00:18;;;;;;;34.13;11.35;;;4.70;99.90;;;;;;4215382;28;20492;-85
2022/12/05 01:02:18;;;;;;;28.30;11.13;;;4.30;99.90;;;;;;4216490;28;20047;-85
2022/12/05 01:04:23;;;;;;;23.55;10.90;;;4.80;99.90;;;;;;4214783;28;20040;-85
2022/12/05 01:06:25;;;;;;;27.00;10.95;;;4.80;99.90;;;;;;4214322;28;20075;-85
2022/12/05 01:08:27;;;;;;;24.65;11.00;;;4.10;99.90;;;;;;4221678;28;20063;-85
2022/12/05 01:10:28;;;;;;;22.30;9.63;;;4.80;99.90;;;;;;4214431;28;20127;-85
2022/12/05 01:12:29;;;;;;;20.98;9.15;;;4.80;99.90;;;;;;4230794;28;20117;-85
2022/12/05 01:14:31;;;;;;;21.25;9.73;;;4.90;99.90;;;;;;4232602;28;20398;-85
2022/12/05 01:16:35;;;;;;;20.08;9.18;;;4.90;99.90;;;;;;4232422;28;20496;-85
2022/12/05 01:18:36;;;;;;;23.23;9.13;;;4.90;99.90;;;;;;4232652;28;20051;-85
2022/12/05 01:20:42;;;;;;;19.73;9.02;;;4.90;99.90;;;;;;4232243;27;20519;-85
2022/12/05 01:22:43;;;;;;;22.38;8.73;;;4.90;99.90;;;;;;4213747;28;20117;-85
2022/12/05 01:24:44;;;;;;;21.50;9.13;;;4.90;99.90;;;;;;4217502;28;20824;-84
2022/12/05 01:26:46;;;;;;;19.63;8.02;;;5.00;99.90;;;;;;4214974;28;20130;-85
2022/12/05 01:28:48;;;;;;;18.70;8.85;;;5.00;99.90;;;;;;4214892;28;20048;-85
2022/12/05 01:30:49;;;;;;;17.75;7.97;;;5.00;99.90;;;;;;4215663;28;20096;-85
2022/12/05 01:32:50;;;;;;;16.88;8.63;;;5.00;99.90;;;;;;4215734;28;20156;-85
2022/12/05 01:34:53;;;;;;;16.52;7.55;;;5.00;99.90;;;;;;4216059;28;20040;-85
2022/12/05 01:36:54;;;;;;;18.63;9.00;;;5.10;99.90;;;;;;4215806;28;20043;-85
2022/12/05 01:38:56;;;;;;;24.75;8.85;;;5.00;99.90;;;;;;4216172;28;20052;-85
2022/12/05 01:41:05;;;;;;;14.68;7.20;;;5.00;99.90;;;;;;4215956;28;20392;-84
2022/12/05 01:43:14;;;;;;;29.67;8.52;;;5.10;99.90;;;;;;4214742;28;20428;-85
2022/12/05 01:45:21;;;;;;;16.33;6.75;;;5.20;99.90;;;;;;4215607;28;20055;-84
2022/12/05 01:47:25;;;;;;;16.00;7.15;;;5.10;99.90;;;;;;4197259;28;20421;-85
2022/12/05 01:49:36;;;;;;;12.82;6.93;;;5.10;99.90;;;;;;4215060;28;20395;-85
2022/12/05 01:51:39;;;;;;;16.08;6.53;;;5.20;99.90;;;;;;4215552;28;20052;-85
2022/12/05 01:53:40;;;;;;;15.20;7.07;;;5.10;99.90;;;;;;4215688;28;20051;-85
2022/12/05 01:55:42;;;;;;;14.68;7.05;;;5.10;99.90;;;;;;4197113;28;20463;-85
2022/12/05 01:57:44;;;;;;;15.05;7.63;;;5.10;99.90;;;;;;4222467;28;20391;-85
2022/12/05 01:59:52;;;;;;;13.85;6.43;;;5.10;99.90;;;;;;4232977;28;20040;-85
2022/12/05 02:01:53;;;;;;;13.65;6.63;;;5.10;99.90;;;;;;4230935;28;20054;-85
2022/12/05 02:03:57;;;;;;;12.10;6.53;;;5.10;99.90;;;;;;4214959;28;20062;-85
2022/12/05 02:05:59;;;;;;;15.15;7.25;;;5.10;99.90;;;;;;4214973;28;20058;-84
2022/12/05 02:08:03;;;;;;;11.57;5.72;;;5.10;99.90;;;;;;4232721;28;20036;-84
2022/12/05 02:10:05;;;;;;;10.80;5.68;;;5.10;99.90;;;;;;4232921;28;20503;-85
2022/12/05 02:12:06;;;;;;;15.07;6.38;;;5.10;99.90;;;;;;4214101;28;20059;-84
2022/12/05 02:14:27;;;;;;;12.25;6.03;;;5.10;99.90;;;;;;4232258;27;20419;-85
2022/12/05 02:16:57;;;;;;;11.15;5.35;;;5.10;99.90;;;;;;4232426;28;20040;-86
2022/12/05 02:19:31;;;;;;;13.18;5.97;;;5.10;99.90;;;;;;4212761;28;20518;-84
2022/12/05 02:22:08;;;;;;;11.30;5.10;;;5.10;99.90;;;;;;4231470;28;20376;-85
2022/12/05 02:24:46;;;;;;;12.93;5.35;;;5.70;99.90;;;;;;4232739;28;20044;-85
2022/12/05 02:26:59;;;;;;;9.43;5.23;;;5.10;99.90;;;;;;4232042;28;20050;-84
2022/12/05 02:29:00;;;;;;;11.60;5.00;;;5.10;99.90;;;;;;4232296;27;20047;-84
2022/12/05 02:31:50;;;;;;;10.45;5.18;;;5.10;99.90;;;;;;4221328;28;20610;-84
2022/12/05 02:34:30;;;;;;;11.60;5.55;;;5.10;99.90;;;;;;4179961;28;20170;-84
2022/12/05 02:36:31;;;;;;;11.32;5.32;;;5.10;99.90;;;;;;4214744;28;20105;-84
2022/12/05 02:38:40;;;;;;;11.38;4.63;;;5.10;99.90;;;;;;4214029;28;20051;-85
2022/12/05 02:40:56;;;;;;;14.68;5.30;;;5.10;99.90;;;;;;4214042;28;20048;-85
2022/12/05 02:43:04;;;;;;;14.05;6.22;;;5.10;99.90;;;;;;4215453;28;20522;-84
2022/12/05 02:45:09;;;;;;;12.83;5.23;;;5.20;99.90;;;;;;4216586;28;20054;-84
2022/12/05 02:47:12;;;;;;;13.45;6.10;;;5.10;99.90;;;;;;4215222;28;20079;-84
2022/12/05 02:49:19;;;;;;;9.23;4.55;;;5.10;99.90;;;;;;4214725;28;20047;-84
2022/12/05 02:51:23;;;;;;;10.27;5.43;;;5.10;99.90;;;;;;4214677;28;20048;-84
2022/12/05 02:53:26;;;;;;;11.18;5.13;;;5.10;99.90;;;;;;4214127;28;20470;-84
2022/12/05 02:55:29;;;;;;;13.90;6.03;;;5.80;99.90;;;;;;4214833;28;20055;-84
2022/12/05 02:57:32;;;;;;;8.30;4.57;;;5.10;99.90;;;;;;4197425;28;20048;-86
2022/12/05 02:59:33;;;;;;;8.95;4.75;;;5.10;99.90;;;;;;4215402;28;20042;-84
2022/12/05 03:01:34;;;;;;;13.85;5.38;;;5.10;99.90;;;;;;4214758;28;20070;-84
2022/12/05 03:03:35;;;;;;;8.82;4.53;;;5.40;99.90;;;;;;4213858;28;20051;-84
2022/12/05 03:05:49;;;;;;;12.32;5.05;;;5.10;99.90;;;;;;4215454;28;20055;-84
2022/12/05 03:07:54;;;;;;;9.02;4.93;;;5.10;99.90;;;;;;4223437;28;20055;-84
2022/12/05 03:09:59;;;;;;;9.38;4.93;;;5.10;99.90;;;;;;4214653;28;20088;-84
2022/12/05 03:12:02;;;;;;;11.55;5.97;;;5.10;99.90;;;;;;4230970;28;20055;-84
2022/12/05 03:14:06;;;;;;;11.00;4.90;;;5.10;99.90;;;;;;4230344;28;20123;-84
2022/12/05 03:16:13;;;;;;;11.27;5.22;;;5.10;99.90;;;;;;4231034;28;20086;-84
2022/12/05 03:18:44;;;;;;;6.18;3.47;;;5.10;99.90;;;;;;4216878;28;20048;-84
2022/12/05 03:20:51;;;;;;;10.35;4.28;;;5.10;99.90;;;;;;4212369;28;20053;-85
2022/12/05 03:22:55;;;;;;;9.45;3.95;;;5.10;99.90;;;;;;4214506;28;20043;-84
2022/12/05 03:24:57;;;;;;;13.65;4.72;;;5.10;99.90;;;;;;4214620;28;20044;-85
2022/12/05 03:27:19;;;;;;;10.30;4.45;;;5.10;99.90;;;;;;4214383;28;20048;-84
2022/12/05 03:29:45;;;;;;;11.55;4.57;;;5.10;99.90;;;;;;4214779;28;20040;-85
2022/12/05 03:32:08;;;;;;;10.60;4.18;;;5.10;99.90;;;;;;4214607;28;20036;-85
2022/12/05 03:34:17;;;;;;;9.10;5.00;;;5.10;99.90;;;;;;4213044;28;20528;-85
2022/12/05 03:36:23;;;;;;;9.88;4.63;;;5.10;99.90;;;;;;4214467;28;20044;-86
2022/12/05 03:38:32;;;;;;;10.93;5.30;;;5.10;99.90;;;;;;4214150;28;20062;-84
2022/12/05 03:40:54;;;;;;;10.75;5.15;;;5.10;99.90;;;;;;4213265;28;20058;-84
2022/12/05 03:43:22;;;;;;;8.18;4.18;;;5.10;99.90;;;;;;4213189;28;20452;-84
2022/12/05 03:45:33;;;;;;;11.50;5.05;;;5.10;99.90;;;;;;4213030;28;20090;-84
2022/12/05 03:47:40;;;;;;;11.93;5.28;;;5.10;99.90;;;;;;4213683;28;20075;-84
2022/12/05 03:49:44;;;;;;;10.65;5.70;;;5.10;99.90;;;;;;4197259;28;20127;-84
2022/12/05 03:51:54;;;;;;;13.52;5.38;;;5.10;99.90;;;;;;4214025;28;20040;-85
2022/12/05 03:53:57;;;;;;;;;;;5.10;99.90;;;;;;4218238;28;20052;-84
2022/12/05 03:56:04;;;;;;;10.23;4.50;;;5.10;99.90;;;;;;4200950;28;20415;-85
2022/12/05 03:58:10;;;;;;;13.13;5.28;;;5.10;99.90;;;;;;4201594;28;20053;-85
2022/12/05 04:00:17;;;;;;;12.95;5.30;;;5.10;99.90;;;;;;4216733;28;20056;-85
2022/12/05 04:02:31;;;;;;;11.82;5.38;;;5.10;99.90;;;;;;4214135;28;20051;-84
2022/12/05 04:04:43;;;;;;;11.27;4.88;;;5.10;99.90;;;;;;4215263;28;20052;-84
2022/12/05 04:06:49;;;;;;;13.93;5.80;;;5.10;99.90;;;;;;4213959;28;20048;-84
2022/12/05 04:08:55;;;;;;;12.90;5.43;;;5.60;99.90;;;;;;4213231;28;20524;-84
2022/12/05 04:11:05;;;;;;;13.02;5.97;;;5.10;99.90;;;;;;4213929;28;20052;-84
2022/12/05 04:13:16;;;;;;;12.23;5.13;;;5.30;99.90;;;;;;4214192;28;20051;-84
2022/12/05 04:15:22;;;;;;;11.80;5.50;;;5.10;99.90;;;;;;4214090;28;20519;-84
2022/12/05 04:17:30;;;;;;;11.57;4.75;;;5.50;99.90;;;;;;4214032;28;20490;-84
2022/12/05 04:21:58;;;;;;;13.43;5.97;;;5.10;99.90;;;;;;4217480;28;20059;-85
2022/12/05 04:26:30;;;;;;;11.68;5.20;;;5.80;99.90;;;;;;4216981;28;20458;-84
2022/12/05 04:28:42;;;;;;;13.60;4.97;;;5.10;99.90;;;;;;4215856;28;20048;-84
2022/12/05 04:31:06;;;;;;;13.02;5.68;;;5.10;99.90;;;;;;4217070;28;20090;-84
2022/12/05 04:33:25;;;;;;;13.70;6.72;;;5.10;99.90;;;;;;4199203;28;20131;-84
2022/12/05 04:35:50;;;;;;;11.45;5.32;;;5.10;99.90;;;;;;4198901;28;20067;-84
2022/12/05 04:37:55;;;;;;;11.75;5.38;;;5.80;99.90;;;;;;4197944;28;20049;-84
2022/12/05 04:40:05;;;;;;;11.02;5.88;;;5.80;99.90;;;;;;4214751;28;20052;-84
2022/12/05 04:42:10;;;;;;;18.40;5.82;;;5.10;99.90;;;;;;4214613;28;20115;-84
2022/12/05 04:44:14;;;;;;;10.48;5.47;;;5.10;99.90;;;;;;4228683;28;20380;-84
2022/12/05 04:46:19;;;;;;;12.27;5.20;;;5.10;99.90;;;;;;4231399;28;20051;-84
2022/12/05 04:48:21;;;;;;;13.85;5.85;;;5.10;99.90;;;;;;4231286;28;20047;-84
2022/12/05 04:50:24;;;;;;;16.17;4.80;;;5.10;99.90;;;;;;4232128;28;20036;-84
2022/12/05 04:52:27;;;;;;;14.43;5.25;;;5.10;99.90;;;;;;4231597;28;20039;-84
2022/12/05 04:54:50;;;;;;;14.48;5.50;;;5.20;99.90;;;;;;4231379;28;20082;-83
2022/12/05 04:56:55;;;;;;;16.67;5.85;;;5.20;99.90;;;;;;4232399;28;20051;-84
2022/12/05 04:58:56;;;;;;;12.57;6.22;;;5.10;99.90;;;;;;4231062;28;20135;-85
2022/12/05 05:01:06;;;;;;;12.15;6.25;;;5.10;99.90;;;;;;4231216;28;20047;-84
2022/12/05 05:03:17;;;;;;;13.50;5.47;;;5.10;99.90;;;;;;4232874;28;20046;-84
2022/12/05 05:05:19;;;;;;;10.73;5.07;;;5.20;99.90;;;;;;4231310;28;20051;-84
2022/12/05 05:07:20;;;;;;;12.45;5.22;;;5.20;99.90;;;;;;4231592;28;20051;-84
2022/12/05 05:09:21;;;;;;;10.55;5.43;;;5.10;99.90;;;;;;4230856;28;20464;-84
2022/12/05 05:11:24;;;;;;;13.25;5.55;;;5.20;99.90;;;;;;4231966;28;20059;-84
2022/12/05 05:13:25;;;;;;;12.13;5.65;;;5.20;99.90;;;;;;4232664;28;20050;-84
2022/12/05 05:15:26;;;;;;;13.00;5.25;;;5.20;99.90;;;;;;4232020;27;20042;-84
2022/12/05 05:17:26;;;;;;;10.70;5.20;;;5.10;99.90;;;;;;4228693;28;20447;-84
2022/12/05 05:19:28;;;;;;;12.48;4.82;;;5.20;99.90;;;;;;4214006;28;20563;-84
2022/12/05 05:21:33;;;;;;;12.20;5.45;;;5.10;99.90;;;;;;4232302;28;20395;-84
2022/12/05 05:23:34;;;;;;;12.98;5.20;;;5.20;99.90;;;;;;4230972;28;20450;-84
2022/12/05 05:25:35;;;;;;;11.63;4.97;;;5.20;99.90;;;;;;4235077;28;20043;-84
2022/12/05 05:27:36;;;;;;;9.95;4.65;;;5.40;99.90;;;;;;4232704;28;20123;-85
2022/12/05 05:29:37;;;;;;;14.13;4.85;;;5.10;99.90;;;;;;4231232;28;20054;-84
2022/12/05 05:31:38;;;;;;;12.85;4.80;;;5.10;99.90;;;;;;4232665;28;20406;-84
2022/12/05 05:33:39;;;;;;;17.20;5.25;;;5.10;99.90;;;;;;4225455;28;20036;-84
2022/12/05 05:35:40;;;;;;;11.88;5.10;;;5.20;99.90;;;;;;4214570;28;20109;-86
2022/12/05 05:37:41;;;;;;;10.27;5.30;;;5.20;99.90;;;;;;4198743;28;20103;-86
2022/12/05 05:39:42;;;;;;;14.13;5.28;;;5.10;99.90;;;;;;4216165;28;20123;-86
2022/12/05 05:41:43;;;;;;;12.43;5.03;;;5.10;99.90;;;;;;4214618;28;20424;-85
2022/12/05 05:43:45;;;;;;;13.38;4.88;;;5.10;99.90;;;;;;4216517;28;20079;-88
2022/12/05 05:45:45;;;;;;;13.60;5.82;;;5.20;99.90;;;;;;4215315;28;20511;-87
2022/12/05 05:47:49;;;;;;;10.35;4.82;;;5.10;99.90;;;;;;4214886;28;20048;-87
2022/12/05 05:49:51;;;;;;;10.25;4.97;;;5.40;99.90;;;;;;4214722;28;20131;-87
2022/12/05 05:51:51;;;;;;;10.65;4.63;;;5.10;99.90;;;;;;4214628;28;20098;-86
2022/12/05 05:53:52;;;;;;;12.20;4.15;;;5.20;99.90;;;;;;4197830;28;20048;-87
2022/12/05 05:55:54;;;;;;;9.35;4.47;;;5.20;99.90;;;;;;4198579;28;20529;-86
2022/12/05 05:57:55;;;;;;;11.45;5.10;;;4.90;99.90;;;;;;4215760;28;20511;-84
2022/12/05 05:59:58;;;;;;;13.00;4.30;;;5.20;99.90;;;;;;4214583;28;20102;-85
2022/12/05 06:01:59;;;;;;;11.18;4.72;;;5.50;99.90;;;;;;4227473;28;20043;-85
2022/12/05 06:04:00;;;;;;;10.98;4.85;;;5.20;99.90;;;;;;4232366;28;20051;-85
2022/12/05 06:06:05;;;;;;;8.07;3.97;;;5.20;99.90;;;;;;4231865;28;20415;-84
2022/12/05 06:08:05;;;;;;;10.63;4.82;;;5.20;99.90;;;;;;4231453;28;20056;-85
2022/12/05 06:10:07;;;;;;;12.52;5.57;;;5.20;99.90;;;;;;4219976;28;20056;-85
2022/12/05 06:12:08;;;;;;;10.07;4.53;;;5.20;99.90;;;;;;4226043;28;20055;-85
2022/12/05 06:14:09;;;;;;;16.63;5.05;;;5.20;99.90;;;;;;4214128;28;20051;-86
2022/12/05 06:16:12;;;;;;;9.07;3.90;;;5.20;99.90;;;;;;4218739;28;20122;-85
2022/12/05 06:18:14;;;;;;;15.80;4.68;;;5.20;99.90;;;;;;4233835;28;20127;-84
2022/12/05 06:20:16;;;;;;;10.85;4.80;;;5.20;99.90;;;;;;4232419;28;20050;-85
2022/12/05 06:22:16;;;;;;;12.20;4.38;;;5.60;99.90;;;;;;4233752;28;20050;-85
2022/12/05 06:24:17;;;;;;;16.13;4.18;;;5.20;99.90;;;;;;4232448;28;20126;-86
2022/12/05 06:26:20;;;;;;;14.30;4.70;;;5.20;99.90;;;;;;4232221;28;20055;-85
2022/12/05 06:28:23;;;;;;;15.02;5.32;;;5.20;99.90;;;;;;4222036;28;20404;-85
2022/12/05 06:30:24;;;;;;;12.23;4.40;;;5.20;99.90;;;;;;4216369;28;20458;-86
2022/12/05 06:32:26;;;;;;;14.00;4.93;;;5.20;99.90;;;;;;4217045;28;20043;-85
2022/12/05 06:34:27;;;;;;;14.85;5.05;;;5.20;99.90;;;;;;4217318;28;20044;-84
2022/12/05 06:36:29;;;;;;;12.38;4.78;;;5.20;99.90;;;;;;4215668;28;20113;-85
2022/12/05 06:38:30;;;;;;;10.80;4.63;;;5.20;99.90;;;;;;4216784;28;20044;-86
2022/12/05 06:40:31;;;;;;;13.07;4.57;;;5.20;99.90;;;;;;4199084;28;20055;-86
2022/12/05 06:42:32;;;;;;;14.73;5.05;;;5.20;99.90;;;;;;4218813;28;20066;-86
2022/12/05 06:44:32;;;;;;;15.90;5.25;;;5.20;99.90;;;;;;4200217;28;20060;-87
2022/12/05 06:46:33;;;;;;;14.50;5.28;;;5.20;99.90;;;;;;4217120;28;20048;-87
2022/12/05 06:48:34;;;;;;;16.95;5.90;;;5.20;99.90;;;;;;4214533;28;20048;-87
2022/12/05 06:50:35;;;;;;;15.30;4.82;;;5.20;99.90;;;;;;4215074;28;20462;-87
2022/12/05 06:52:36;;;;;;;14.27;4.65;;;5.20;99.90;;;;;;4216532;28;20028;-88
2022/12/05 06:54:37;;;;;;;14.02;4.63;;;5.20;99.90;;;;;;4215272;28;20098;-86
2022/12/05 06:56:38;;;;;;;13.18;5.15;;;5.20;99.90;;;;;;4214597;28;20048;-86
2022/12/05 06:58:39;;;;;;;23.25;6.05;;;;;;;;;;4215077;28;20106;-87
2022/12/05 07:03:00;;;;;;;15.10;5.15;;;5.30;99.90;;;;;;4217920;28;20135;-87
2022/12/05 07:05:01;;;;;;;16.50;5.03;;;5.20;99.90;;;;;;4216982;28;20495;-86
2022/12/05 07:07:04;;;;;;;11.02;4.63;;;5.20;99.90;;;;;;4203164;28;20079;-87
2022/12/05 07:09:05;;;;;;;13.35;5.28;;;5.10;99.90;;;;;;4197416;28;20052;-86
2022/12/05 07:11:06;;;;;;;13.65;5.40;;;5.20;99.90;;;;;;4215219;28;20089;-86
2022/12/05 07:13:07;;;;;;;19.00;5.15;;;5.20;99.90;;;;;;4215083;28;20493;-86
2022/12/05 07:15:08;;;;;;;12.57;4.28;;;4.40;99.90;;;;;;4213879;28;20047;-85
2022/12/05 07:17:12;;;;;;;16.73;5.13;;;5.20;99.90;;;;;;4213904;28;20052;-86
2022/12/05 07:19:13;;;;;;;14.07;5.88;;;5.20;99.90;;;;;;4213764;28;20412;-86
2022/12/05 07:21:15;;;;;;;11.38;4.60;;;5.30;99.90;;;;;;4207317;28;20070;-86
2022/12/05 07:23:16;;;;;;;13.50;4.22;;;5.30;99.90;;;;;;4231796;28;20077;-86
2022/12/05 07:25:21;;;;;;;16.73;4.65;;;5.20;99.90;;;;;;4232384;28;20075;-85
2022/12/05 07:27:22;;;;;;;10.23;4.50;;;5.70;99.90;;;;;;4231841;28;20490;-84
2022/12/05 07:29:22;;;;;;;13.00;5.57;;;4.30;99.90;;;;;;4214042;28;20051;-84
2022/12/05 07:31:25;;;;;;;9.20;3.70;;;5.30;99.90;;;;;;4231402;28;20043;-84
2022/12/05 07:33:26;;;;;;;12.60;5.13;;;5.20;99.90;;;;;;4232141;28;20061;-84
2022/12/05 07:35:27;;;;;;;15.05;4.60;;;5.30;99.90;;;;;;4230557;28;20093;-84
2022/12/05 07:37:29;;;;;;;12.52;4.88;;;5.30;99.90;;;;;;4231315;28;20398;-83
2022/12/05 07:39:30;;;;;;;9.70;4.45;;;5.30;99.90;;;;;;4229964;28;20051;-83
2022/12/05 07:41:32;;;;;;;15.20;4.80;;;5.30;99.90;;;;;;4230814;28;20468;-85
2022/12/05 07:43:33;;;;;;;11.27;4.65;;;5.30;99.90;;;;;;4230114;28;20153;-83
2022/12/05 07:45:34;;;;;;;14.23;4.88;;;5.40;99.90;;;;;;4229998;28;20039;-84
2022/12/05 07:47:35;;;;;;;12.30;4.60;;;5.30;99.90;;;;;;4213078;28;20056;-84
2022/12/05 07:49:36;;;;;;;11.60;4.57;;;5.40;99.90;;;;;;4231138;28;20040;-84
2022/12/05 07:51:37;;;;;;;12.70;4.60;;;5.30;99.90;;;;;;4230891;28;20044;-84
2022/12/05 07:53:41;;;;;;;9.38;4.25;;;5.40;99.90;;;;;;4213635;28;20580;-88
2022/12/05 07:55:43;;;;;;;10.68;5.60;;;5.40;99.90;;;;;;4226548;28;20146;-89
2022/12/05 07:57:45;;;;;;;8.63;4.75;;;4.30;99.90;;;;;;4231270;28;20044;-88
2022/12/05 07:59:48;;;;;;;14.75;4.80;;;5.40;99.90;;;;;;4222704;27;20043;-88
2022/12/05 08:01:49;;;;;;;14.82;4.50;;;5.40;99.90;;;;;;4218925;28;20055;-88
2022/12/05 08:03:55;;;;;;;11.32;4.38;;;5.40;99.90;;;;;;4201067;28;20060;-88
2022/12/05 08:06:01;;;;;;;14.25;4.68;;;5.40;99.90;;;;;;4200110;28;20452;-88
2022/12/05 08:08:02;;;;;;;11.75;3.95;;;5.40;99.90;;;;;;4217596;28;20055;-88
2022/12/05 08:10:04;;;;;;;13.65;5.10;;;4.40;99.90;;;;;;4200941;28;20052;-88
2022/12/05 08:12:06;;;;;;;14.02;4.70;;;5.40;99.90;;;;;;4201038;28;20099;-89
2022/12/05 08:14:09;;;;;;;15.90;4.57;;;5.40;99.90;;;;;;4223527;28;20091;-88
2022/12/05 08:16:16;;;;;;;14.50;5.38;;;5.40;99.90;;;;;;4207302;28;20044;-89
2022/12/05 08:18:17;;;;;;;13.95;5.22;;;5.40;99.90;;;;;;4219229;28;20040;-88
2022/12/05 08:20:18;;;;;;;9.25;4.47;;;5.40;99.90;;;;;;4219535;28;20115;-88
2022/12/05 08:25:09;;;;;;;10.23;4.05;;;4.70;99.90;;;;;;4216791;28;20519;-89
2022/12/05 08:27:09;;;;;;;11.43;4.22;;;5.40;99.90;;;;;;4217028;28;20036;-89
2022/12/05 08:29:13;;;;;;;16.65;5.45;;;5.40;99.90;;;;;;4198849;28;20054;-86
2022/12/05 08:31:17;;;;;;;10.32;4.63;;;5.40;99.90;;;;;;4216793;28;20044;-87
2022/12/05 08:33:17;;;;;;;11.90;4.75;;;5.40;99.90;;;;;;4219618;28;20040;-86
2022/12/05 08:35:19;;;;;;;11.63;4.45;;;5.20;99.90;;;;;;4201367;28;20048;-86
2022/12/05 08:37:21;;;;;;;13.73;4.25;;;5.40;99.90;;;;;;4228914;28;20084;-87
2022/12/05 08:39:22;;;;;;;13.20;4.88;;;5.40;99.90;;;;;;4223166;28;20040;-87
2022/12/05 08:41:27;;;;;;;9.38;4.20;;;5.40;99.90;;;;;;4222585;28;20504;-86
2022/12/05 08:43:29;;;;;;;12.80;4.43;;;4.20;99.90;;;;;;4230980;28;20047;-86
2022/12/05 08:45:29;;;;;;;11.70;4.55;;;5.40;99.90;;;;;;4234046;28;20081;-84
2022/12/05 08:47:30;;;;;;;14.52;4.50;;;5.40;99.90;;;;;;4220244;28;20036;-85
2022/12/05 08:49:31;;;;;;;14.10;5.13;;;4.40;99.90;;;;;;4229910;28;20044;-86
2022/12/05 08:51:32;;;;;;;12.55;3.85;;;5.40;99.90;;;;;;4222140;28;20123;-85
2022/12/05 08:53:34;;;;;;;16.08;5.25;;;5.40;99.90;;;;;;4222485;28;20047;-85
2022/12/05 08:55:35;;;;;;;12.75;5.07;;;5.40;99.90;;;;;;4231952;28;20043;-85
2022/12/05 08:57:36;;;;;;;11.27;4.40;;;5.40;99.90;;;;;;4223446;28;20040;-85
2022/12/05 08:59:36;;;;;;;10.90;4.63;;;5.40;99.90;;;;;;4215814;28;20602;-86
2022/12/05 09:01:37;;;;;;;12.57;5.18;;;5.40;99.90;;;;;;4213076;28;20051;-85
2022/12/05 09:03:39;;;;;;;14.45;4.90;;;5.40;99.90;;;;;;4212475;28;20138;-85
2022/12/05 09:05:40;;;;;;;11.60;5.30;;;5.40;99.90;;;;;;4230203;28;20048;-85
2022/12/05 09:07:42;;;;;;;15.65;4.95;;;5.40;99.90;;;;;;4212842;28;20520;-86
2022/12/05 09:09:43;;;;;;;12.20;4.85;;;5.40;99.90;;;;;;4221587;28;20051;-85
2022/12/05 09:11:49;;;;;;;11.40;4.88;;;5.40;99.90;;;;;;4227138;28;20051;-86
2022/12/05 09:13:51;;;;;;;11.20;4.75;;;5.40;99.90;;;;;;4217686;28;20560;-85
2022/12/05 09:15:52;;;;;;;10.95;5.13;;;5.50;99.90;;;;;;4220149;28;20411;-86
2022/12/05 09:17:53;;;;;;;13.00;4.95;;;5.50;99.90;;;;;;4222103;28;20072;-86
2022/12/05 09:19:54;;;;;;;11.82;4.38;;;5.40;99.90;;;;;;4221860;28;20036;-86
2022/12/05 09:21:55;;;;;;;13.07;4.85;;;5.50;99.90;;;;;;4213191;28;20044;-86
2022/12/05 09:23:58;;;;;;;12.57;4.90;;;5.50;99.90;;;;;;4229975;28;20063;-86
2022/12/05 09:26:01;;;;;;;13.35;4.75;;;5.40;99.90;;;;;;4206960;28;20054;-87
2022/12/05 09:28:02;;;;;;;12.65;5.10;;;5.50;99.90;;;;;;4220995;28;20123;-83
2022/12/05 09:30:04;;;;;;;12.25;4.68;;;5.50;99.90;;;;;;4222064;28;20044;-86
2022/12/05 09:32:06;;;;;;;12.25;5.57;;;5.50;99.90;;;;;;4229465;28;20040;-86
2022/12/05 09:34:08;;;;;;;11.82;5.47;;;5.40;99.90;;;;;;4221208;28;20533;-86
2022/12/05 09:36:24;;;;;;;9.10;4.35;;;5.30;99.90;;;;;;4229254;28;20479;-85
2022/12/05 09:38:25;;;;;;;18.58;5.97;;;5.50;99.90;;;;;;4228764;28;20048;-85
2022/12/05 09:40:27;;;;;;;11.70;4.85;;;5.60;99.90;;;;;;4214486;28;20050;-84
2022/12/05 09:42:37;;;;;;;14.57;5.50;;;5.50;99.90;;;;;;4219347;28;20100;-85
2022/12/05 09:44:59;;;;;;;12.98;5.18;;;5.50;99.90;;;;;;4201264;28;20417;-85
2022/12/05 09:47:10;;;;;;;12.25;4.43;;;5.50;99.90;;;;;;4219921;28;20056;-85
2022/12/05 09:49:12;;;;;;;13.30;5.28;;;5.50;99.90;;;;;;4228634;28;20071;-86
2022/12/05 09:51:13;;;;;;;12.20;4.82;;;5.60;99.90;;;;;;4224245;28;20040;-86
2022/12/05 09:53:31;;;;;;;18.15;5.28;;;5.60;99.90;;;;;;4230102;28;20123;-86
2022/12/05 09:55:46;;;;;;;12.25;5.15;;;5.60;99.90;;;;;;4233690;28;20588;-86
2022/12/05 09:57:51;;;;;;;11.70;5.63;;;5.60;99.90;;;;;;4231541;28;20131;-86
2022/12/05 09:59:52;;;;;;;20.55;6.30;;;5.60;99.90;;;;;;4225766;28;20504;-87
2022/12/05 10:02:10;;;;;;;15.25;6.05;;;5.60;99.90;;;;;;4213279;28;20086;-86
2022/12/05 10:04:14;;;;;;;12.70;5.13;;;5.80;99.90;;;;;;4234685;28;20049;-87
2022/12/05 10:06:25;;;;;;;14.63;5.43;;;5.60;99.90;;;;;;4230600;28;20048;-87
2022/12/05 10:08:42;;;;;;;14.80;5.53;;;5.60;99.90;;;;;;4245177;28;20050;-86
2022/12/05 10:11:01;;;;;;;13.65;5.18;;;5.60;99.90;;;;;;4231106;28;20046;-86
2022/12/05 10:13:40;;;;;;;16.85;5.65;;;5.60;99.90;;;;;;4228260;28;20052;-86
2022/12/05 10:15:46;;;;;;;;;;;5.60;99.90;;;;;;4223415;28;20071;-86
2022/12/05 10:18:01;;;;;;;13.43;5.60;;;5.60;99.90;;;;;;4236523;27;19919;-86
2022/12/05 10:20:27;;;;;;;13.02;5.57;;;5.60;99.90;;;;;;4221140;28;20048;-86
2022/12/05 10:22:38;;;;;;;14.00;6.00;;;5.50;99.90;;;;;;4220390;28;20047;-85
2022/12/05 10:25:01;;;;;;;16.05;5.28;;;5.60;99.90;;;;;;4214998;28;20434;-85
2022/12/05 10:27:07;;;;;;;15.90;5.82;;;5.60;99.90;;;;;;4232077;28;20061;-86
2022/12/05 10:29:18;;;;;;;15.32;5.97;;;5.60;99.90;;;;;;4220743;28;20118;-86
2022/12/05 10:31:25;;;;;;;15.77;5.20;;;5.60;99.90;;;;;;4233691;28;20400;-86
2022/12/05 10:33:34;;;;;;;15.32;5.07;;;5.60;99.90;;;;;;4230190;28;20066;-85
2022/12/05 10:35:37;;;;;;;13.95;5.00;;;5.60;99.90;;;;;;4219315;28;20047;-85
2022/12/05 10:37:38;;;;;;;14.45;5.47;;;5.60;99.90;;;;;;4221039;28;20550;-87
2022/12/05 10:39:39;;;;;;;11.48;4.78;;;5.60;99.90;;;;;;4217980;28;20040;-86
2022/12/05 10:41:40;;;;;;;11.65;5.25;;;5.60;99.90;;;;;;4198123;28;20044;-86
2022/12/05 10:43:43;;;;;;;11.63;5.72;;;5.50;99.90;;;;;;4201982;28;20059;-85
2022/12/05 10:45:46;;;;;;;11.13;4.60;;;5.50;99.90;;;;;;4229091;28;20458;-85
2022/12/05 10:47:52;;;;;;;13.35;4.82;;;5.50;99.90;;;;;;4220829;28;20096;-86
2022/12/05 10:49:57;;;;;;;12.95;5.32;;;6.20;99.90;;;;;;4227104;28;20503;-85
2022/12/05 10:51:58;;;;;;;14.20;5.40;;;5.70;99.90;;;;;;4219037;28;20819;-86
2022/12/05 10:54:00;;;;;;;11.20;4.78;;;5.50;99.90;;;;;;4202697;28;20583;-86
2022/12/05 10:56:00;;;;;;;10.30;4.75;;;5.50;99.90;;;;;;4220484;28;20370;-86
2022/12/05 10:58:09;;;;;;;14.35;4.75;;;5.70;99.90;;;;;;4206596;28;20073;-86
2022/12/05 11:00:14;;;;;;;11.60;4.70;;;6.10;99.90;;;;;;4226428;28;20066;-85
2022/12/05 11:02:28;;;;;;;15.45;5.25;;;5.60;99.90;;;;;;4219278;28;20083;-86